Archival Weather

Komakuk Beach

Komakuk Beach, Canada (CWKM)

Report from: Saturday, April 1, 2023 8:00 PM UTC
Current time: Friday, June 21, 2024 11:16 PM UTC

Current weather – Weather history – Daily summaries
Weather forecast

Present weatherSM
Temperature-14.0°C (6.8°F)
Wind chill-25.7°C (-14.3°F)
Dew point-18.0°C (-0.4°F)
Winds 20 kts (10.3 m/s, 23 mph) East (100°)
Visibility0 ft. (0 m)
Clouds Sky clear
Altimeter29.92 in.Hg (1013 mB)
Relative humidity72 %
Density altitude-3,631 ft. (-1,107 m)
Remarks Fully automated report
No clouds detected
Flight conditions Low Instrument Meteorological Conditions
Raw dataCWKM 012000Z AUTO 10020KT ////SM NCD M14/M18 A2992
An error has occurred. This application may no longer respond until reloaded. Reload 🗙